Time;durP1;ratioP1;P1;durP2;ratioP2;P2;SDS_P1;SDS_P2;PMS_P1;PMS_P2;Temp;Humidity;BMP_temperature;BMP_pressure;BME280_temperature;BME280_humidity;BME280_pressure;Samples;Min_cycle;Max_cycle;Signal;HPM_P1;HPM_P2
2022/10/05 00:01:48;;;;;;;9.18;6.88;;;15.00;99.90;;;;;;4734102;30;20183;-67
2022/10/05 00:04:23;;;;;;;10.82;7.15;;;15.00;99.90;;;;;;4750566;30;20159;-67
2022/10/05 00:07:11;;;;;;;7.85;6.60;;;15.00;99.90;;;;;;4747988;30;20087;-67
2022/10/05 00:09:37;;;;;;;11.70;6.90;;;15.00;99.90;;;;;;4730670;30;20074;-67
2022/10/05 00:12:17;;;;;;;8.38;6.28;;;15.00;99.90;;;;;;4751740;30;20047;-67
2022/10/05 00:14:45;;;;;;;8.23;6.53;;;15.00;99.90;;;;;;4735685;30;20512;-67
2022/10/05 00:17:19;;;;;;;8.18;6.43;;;15.00;99.90;;;;;;4750238;30;20056;-67
2022/10/05 00:19:45;;;;;;;8.10;6.10;;;15.00;99.90;;;;;;4750261;30;20078;-67
2022/10/05 00:22:21;;;;;;;7.30;6.10;;;15.00;99.90;;;;;;4750444;30;20561;-67
2022/10/05 00:24:53;;;;;;;8.55;6.25;;;14.90;99.90;;;;;;4748736;30;20052;-67
2022/10/05 00:27:24;;;;;;;9.85;6.65;;;14.90;99.90;;;;;;4736411;30;20063;-66
2022/10/05 00:29:52;;;;;;;9.35;6.70;;;14.90;99.90;;;;;;4746117;30;20187;-67
2022/10/05 00:32:18;;;;;;;9.90;6.18;;;15.00;99.90;;;;;;4735963;30;20551;-67
2022/10/05 00:34:44;;;;;;;10.88;7.10;;;14.90;99.90;;;;;;4749823;30;20052;-67
2022/10/05 00:37:10;;;;;;;9.23;6.70;;;15.00;99.90;;;;;;4750550;30;20079;-67
2022/10/05 00:39:37;;;;;;;10.73;6.28;;;14.90;99.90;;;;;;4747077;30;20481;-67
2022/10/05 00:42:29;;;;;;;8.88;5.93;;;14.90;99.90;;;;;;4737261;30;20080;-67
2022/10/05 00:45:14;;;;;;;10.55;6.15;;;14.90;99.90;;;;;;4737349;30;20056;-67
2022/10/05 00:47:54;;;;;;;6.60;5.90;;;14.90;99.90;;;;;;4751390;30;20405;-67
2022/10/05 00:50:45;;;;;;;8.65;5.72;;;14.90;99.90;;;;;;4750994;30;20129;-67
2022/10/05 00:53:38;;;;;;;7.82;5.88;;;14.90;99.90;;;;;;4735630;30;20508;-67
2022/10/05 00:56:12;;;;;;;6.28;5.53;;;14.90;99.90;;;;;;4733819;30;20063;-67
2022/10/05 00:59:05;;;;;;;6.65;5.95;;;14.90;99.90;;;;;;4751450;30;20130;-67
2022/10/05 01:01:43;;;;;;;8.43;5.78;;;14.90;99.90;;;;;;4748034;30;20114;-67
2022/10/05 01:04:46;;;;;;;7.15;5.65;;;14.90;99.90;;;;;;4734895;30;20478;-67
2022/10/05 01:07:30;;;;;;;8.25;6.15;;;14.90;99.90;;;;;;4680999;30;20053;-67
2022/10/05 01:10:17;;;;;;;7.43;6.00;;;14.90;99.90;;;;;;4695251;30;20053;-67
2022/10/05 01:13:03;;;;;;;7.05;5.97;;;14.90;99.90;;;;;;4726588;30;20056;-67
2022/10/05 01:15:36;;;;;;;8.68;6.13;;;14.90;99.90;;;;;;4725783;30;20059;-67
2022/10/05 01:18:28;;;;;;;7.45;6.25;;;14.90;99.90;;;;;;4721317;30;20106;-67
2022/10/05 01:21:02;;;;;;;9.10;6.13;;;14.90;99.90;;;;;;4746829;30;20421;-67
2022/10/05 01:23:51;;;;;;;8.15;5.97;;;14.90;99.90;;;;;;4751444;30;20052;-67
2022/10/05 01:26:28;;;;;;;7.32;6.03;;;14.90;99.90;;;;;;4746780;30;20064;-67
2022/10/05 01:29:21;;;;;;;8.45;6.45;;;14.90;99.90;;;;;;4737743;30;20564;-67
2022/10/05 01:32:09;;;;;;;6.72;6.07;;;14.90;99.90;;;;;;4752304;30;20060;-67
2022/10/05 01:34:43;;;;;;;10.13;6.70;;;14.90;99.90;;;;;;4739704;30;20146;-67
2022/10/05 01:37:48;;;;;;;8.35;6.47;;;14.90;99.90;;;;;;4736904;30;20506;-67
2022/10/05 01:40:37;;;;;;;8.98;6.68;;;14.90;99.90;;;;;;4708491;30;20060;-67
2022/10/05 01:43:23;;;;;;;7.60;6.60;;;14.90;99.90;;;;;;4737040;30;20136;-67
2022/10/05 01:46:27;;;;;;;9.43;6.90;;;14.90;99.90;;;;;;4738006;30;20056;-67
2022/10/05 01:49:22;;;;;;;10.02;7.38;;;14.80;99.90;;;;;;4753900;30;20090;-67
2022/10/05 01:52:06;;;;;;;11.35;7.60;;;14.80;99.90;;;;;;4739670;30;20123;-67
2022/10/05 01:54:56;;;;;;;10.75;8.02;;;14.80;99.90;;;;;;4736988;30;20105;-67
2022/10/05 01:57:42;;;;;;;9.05;7.38;;;14.80;99.90;;;;;;4737025;30;20044;-67
2022/10/05 02:00:16;;;;;;;10.70;7.30;;;14.80;99.90;;;;;;4754425;30;20056;-67
2022/10/05 02:03:07;;;;;;;11.23;8.38;;;14.80;99.90;;;;;;4753553;30;20505;-67
2022/10/05 02:05:47;;;;;;;9.65;7.40;;;14.80;99.90;;;;;;4735935;30;20063;-67
2022/10/05 02:08:30;;;;;;;13.13;8.25;;;14.80;99.90;;;;;;4733947;30;20102;-67
2022/10/05 02:11:06;;;;;;;9.05;7.95;;;14.80;99.90;;;;;;4748886;30;20084;-67
2022/10/05 02:13:45;;;;;;;10.85;7.95;;;14.70;99.90;;;;;;4751391;30;20063;-67
2022/10/05 02:16:24;;;;;;;8.93;7.10;;;14.70;99.90;;;;;;4750669;30;20048;-67
2022/10/05 02:18:59;;;;;;;9.68;7.88;;;14.70;99.90;;;;;;4754329;30;20056;-67
2022/10/05 02:21:26;;;;;;;12.27;8.02;;;14.70;99.90;;;;;;4752084;30;20055;-67
2022/10/05 02:23:57;;;;;;;8.60;7.22;;;14.60;99.90;;;;;;4745904;30;20048;-67
2022/10/05 02:26:24;;;;;;;10.23;8.33;;;14.60;99.90;;;;;;4751903;30;20052;-67
2022/10/05 02:28:52;;;;;;;11.93;8.65;;;14.60;99.90;;;;;;4752447;30;20392;-67
2022/10/05 02:31:25;;;;;;;11.10;8.73;;;14.60;99.90;;;;;;4753109;30;20569;-67
2022/10/05 02:33:50;;;;;;;9.00;7.60;;;14.60;99.90;;;;;;4753772;30;20055;-67
2022/10/05 02:36:28;;;;;;;12.95;8.70;;;14.50;99.90;;;;;;4753388;30;20048;-67
2022/10/05 02:39:05;;;;;;;10.50;8.05;;;14.50;99.90;;;;;;4734642;30;20056;-67
2022/10/05 02:41:45;;;;;;;15.10;8.60;;;14.40;99.90;;;;;;4749880;30;20400;-67
2022/10/05 02:44:36;;;;;;;12.43;8.02;;;14.50;99.90;;;;;;4749350;30;20084;-67
2022/10/05 02:47:21;;;;;;;10.60;7.95;;;14.50;99.90;;;;;;4752345;30;20062;-67
2022/10/05 02:50:12;;;;;;;9.40;7.28;;;14.50;99.90;;;;;;4737884;30;20075;-67
2022/10/05 02:52:54;;;;;;;8.27;7.38;;;14.50;99.90;;;;;;4753503;30;20084;-67
2022/10/05 02:55:44;;;;;;;11.48;8.20;;;14.50;99.90;;;;;;4736923;30;20059;-67
2022/10/05 02:58:18;;;;;;;10.00;7.90;;;14.50;99.90;;;;;;4742115;30;20351;-67
2022/10/05 03:01:09;;;;;;;9.35;7.20;;;14.50;99.90;;;;;;4722978;30;20147;-67
2022/10/05 03:11:31;;;;;;;9.38;7.30;;;14.50;99.90;;;;;;4752534;30;20052;-67
2022/10/05 03:25:22;;;;;;;8.57;7.00;;;14.50;99.90;;;;;;4734777;30;20135;-67
2022/10/05 03:27:58;;;;;;;9.38;6.72;;;14.50;99.90;;;;;;4751395;30;20135;-66
2022/10/05 03:34:25;;;;;;;9.70;6.75;;;14.50;99.90;;;;;;4750821;30;20041;-67
2022/10/05 03:37:12;;;;;;;10.45;6.90;;;14.50;99.90;;;;;;4736684;30;20048;-67
2022/10/05 03:43:31;;;;;;;9.35;6.43;;;14.40;99.90;;;;;;4732141;30;20190;-67
2022/10/05 03:46:16;;;;;;;7.68;6.80;;;14.40;99.90;;;;;;4749681;30;20495;-67
2022/10/05 03:49:25;;;;;;;9.25;6.63;;;14.40;99.90;;;;;;4751025;30;20109;-68
2022/10/05 03:52:01;;;;;;;8.88;7.53;;;14.40;99.90;;;;;;4749428;30;20171;-68
2022/10/05 03:54:52;;;;;;;8.88;7.10;;;14.40;99.90;;;;;;4748610;30;20052;-67
2022/10/05 03:57:24;;;;;;;8.63;6.60;;;14.40;99.90;;;;;;4751042;30;20044;-67
2022/10/05 04:00:09;;;;;;;8.45;6.53;;;14.40;99.90;;;;;;4751113;30;20382;-67
2022/10/05 04:03:19;;;;;;;10.88;6.72;;;14.40;99.90;;;;;;4751585;30;20048;-67
2022/10/05 04:05:52;;;;;;;7.43;6.53;;;14.40;99.90;;;;;;4674059;30;20101;-67
2022/10/05 04:08:31;;;;;;;8.38;7.10;;;14.40;99.90;;;;;;4670846;30;20275;-67
2022/10/05 04:11:03;;;;;;;9.75;7.00;;;14.40;99.90;;;;;;4661569;30;20061;-67
2022/10/05 04:13:35;;;;;;;8.05;6.70;;;14.50;99.90;;;;;;4661391;30;20069;-67
2022/10/05 04:16:16;;;;;;;8.77;7.18;;;14.40;99.90;;;;;;4660765;30;20152;-67
2022/10/05 04:18:49;;;;;;;8.00;6.70;;;14.40;99.90;;;;;;4663774;30;20412;-67
2022/10/05 04:21:47;;;;;;;9.32;7.35;;;14.50;99.90;;;;;;4666780;30;20062;-67
2022/10/05 04:24:29;;;;;;;8.65;7.18;;;14.40;99.90;;;;;;4671278;30;20141;-67
2022/10/05 04:27:03;;;;;;;9.63;7.35;;;14.40;99.90;;;;;;4665283;30;20050;-67
2022/10/05 04:29:52;;;;;;;10.80;7.45;;;14.40;99.90;;;;;;4668267;30;20050;-67
2022/10/05 04:32:39;;;;;;;10.25;7.38;;;14.40;99.90;;;;;;4672870;30;20128;-67
2022/10/05 04:35:41;;;;;;;9.40;7.60;;;14.40;99.90;;;;;;4664828;30;20163;-67
2022/10/05 04:38:39;;;;;;;9.43;7.95;;;14.40;99.90;;;;;;4672786;30;20057;-67
2022/10/05 04:41:32;;;;;;;8.77;7.75;;;14.40;99.90;;;;;;4683407;30;20077;-67
2022/10/05 04:44:01;;;;;;;10.75;7.85;;;14.40;99.90;;;;;;4729272;30;20553;-67
2022/10/05 04:46:26;;;;;;;9.05;8.15;;;14.40;99.90;;;;;;4717863;30;20088;-67
2022/10/05 04:49:13;;;;;;;10.75;8.10;;;14.30;99.90;;;;;;4732301;30;20072;-67
2022/10/05 04:52:13;;;;;;;9.73;8.23;;;14.30;99.90;;;;;;4732515;30;20132;-67
2022/10/05 04:55:11;;;;;;;10.98;8.25;;;14.30;99.90;;;;;;4726405;30;20092;-67
2022/10/05 04:57:41;;;;;;;12.45;9.18;;;14.30;99.90;;;;;;4729996;30;20055;-67
2022/10/05 05:00:22;;;;;;;11.00;8.45;;;14.20;99.90;;;;;;4719957;30;20053;-67
2022/10/05 05:03:17;;;;;;;10.73;9.07;;;14.20;99.90;;;;;;4733356;30;20394;-67
2022/10/05 05:06:20;;;;;;;14.45;9.50;;;14.20;99.90;;;;;;4732622;30;20067;-67
2022/10/05 05:08:51;;;;;;;10.43;9.10;;;14.10;99.90;;;;;;4733299;30;20130;-66
2022/10/05 05:12:08;;;;;;;10.43;8.68;;;14.10;99.90;;;;;;4730425;30;20067;-67
2022/10/05 05:15:01;;;;;;;11.15;8.55;;;14.10;99.90;;;;;;4691056;30;20063;-67
2022/10/05 05:18:01;;;;;;;11.68;8.68;;;14.10;99.90;;;;;;4722871;30;20131;-67
2022/10/05 05:20:52;;;;;;;11.32;9.00;;;14.10;99.90;;;;;;4722405;30;20064;-66
2022/10/05 05:23:29;;;;;;;16.52;9.60;;;14.00;99.90;;;;;;4732496;30;20585;-67
2022/10/05 05:26:17;;;;;;;11.55;9.30;;;14.00;99.90;;;;;;4731848;30;20052;-67
2022/10/05 05:28:49;;;;;;;11.73;8.98;;;14.00;99.90;;;;;;4708369;30;20060;-67
2022/10/05 05:31:36;;;;;;;11.30;9.40;;;14.00;99.90;;;;;;4744852;30;20509;-67
2022/10/05 05:34:21;;;;;;;11.77;9.73;;;14.00;99.90;;;;;;4748459;30;20485;-65
2022/10/05 05:37:06;;;;;;;14.27;9.57;;;14.00;99.90;;;;;;4749182;30;20551;-67
2022/10/05 05:39:50;;;;;;;11.98;9.55;;;14.00;99.90;;;;;;4749245;30;20060;-66
2022/10/05 05:42:32;;;;;;;14.25;9.57;;;14.00;99.90;;;;;;4750692;30;20048;-67
2022/10/05 05:45:30;;;;;;;11.05;9.50;;;14.00;99.90;;;;;;4742733;30;20063;-67
2022/10/05 05:47:58;;;;;;;18.35;9.88;;;14.00;99.90;;;;;;4728703;30;20049;-66
2022/10/05 05:50:29;;;;;;;13.57;10.30;;;14.00;99.90;;;;;;4750897;30;20427;-66
2022/10/05 05:53:04;;;;;;;12.73;10.27;;;14.00;99.90;;;;;;4735283;30;20076;-66
2022/10/05 05:55:37;;;;;;;10.75;9.30;;;14.00;99.90;;;;;;4750731;30;20486;-66
2022/10/05 05:58:31;;;;;;;13.50;10.75;;;14.00;99.90;;;;;;4734866;30;20060;-66
2022/10/05 06:01:04;;;;;;;13.35;10.75;;;14.00;99.90;;;;;;4736048;30;20044;-66
2022/10/05 06:03:45;;;;;;;13.13;10.82;;;14.00;99.90;;;;;;4750075;30;21734;-66
2022/10/05 06:06:18;;;;;;;13.40;10.50;;;14.00;99.90;;;;;;4751966;30;20059;-66
2022/10/05 06:08:52;;;;;;;15.35;10.77;;;14.00;99.90;;;;;;4747670;30;20052;-66
2022/10/05 06:11:20;;;;;;;12.02;9.88;;;14.00;99.90;;;;;;4735429;30;20086;-66
2022/10/05 06:13:47;;;;;;;18.73;10.52;;;14.00;99.90;;;;;;4736839;30;20422;-66
2022/10/05 06:16:22;;;;;;;11.98;9.82;;;14.00;99.90;;;;;;4754557;30;20060;-66
2022/10/05 06:19:03;;;;;;;12.43;10.02;;;14.10;99.90;;;;;;4753295;30;20047;-67
2022/10/05 06:21:43;;;;;;;14.25;10.68;;;14.10;99.90;;;;;;4738302;30;20095;-66
2022/10/05 06:24:17;;;;;;;13.20;10.75;;;14.00;99.90;;;;;;4753133;30;20044;-67
2022/10/05 06:27:05;;;;;;;13.23;10.93;;;14.10;99.90;;;;;;4754434;30;20134;-67
2022/10/05 06:29:53;;;;;;;14.88;10.60;;;14.10;99.90;;;;;;4736803;30;20080;-67
2022/10/05 06:32:53;;;;;;;14.05;10.23;;;14.10;99.90;;;;;;4727440;30;20110;-66
2022/10/05 06:35:42;;;;;;;15.05;11.38;;;14.10;99.90;;;;;;4726902;30;20053;-66
2022/10/05 06:38:40;;;;;;;13.63;9.93;;;14.10;99.90;;;;;;4738194;30;20470;-66
2022/10/05 06:41:33;;;;;;;11.88;10.68;;;14.10;99.90;;;;;;4738603;30;20088;-66
2022/10/05 06:44:29;;;;;;;11.57;10.07;;;14.10;99.90;;;;;;4727096;30;20052;-66
2022/10/05 06:47:06;;;;;;;13.48;10.60;;;14.10;99.90;;;;;;4753465;30;20070;-66
2022/10/05 06:49:40;;;;;;;11.55;9.38;;;14.10;99.90;;;;;;4741203;30;20048;-66
2022/10/05 06:52:30;;;;;;;12.98;10.07;;;14.10;99.90;;;;;;4754246;30;20056;-66
2022/10/05 06:55:22;;;;;;;10.98;9.55;;;14.20;99.90;;;;;;4737325;30;20139;-66
2022/10/05 06:58:00;;;;;;;10.68;9.57;;;14.30;99.90;;;;;;4737377;30;20048;-66
2022/10/05 07:01:14;;;;;;;13.02;10.43;;;14.20;99.90;;;;;;4749865;30;20044;-66
2022/10/05 07:04:01;;;;;;;12.90;10.07;;;14.30;99.90;;;;;;4706396;30;20063;-67
2022/10/05 07:06:39;;;;;;;11.65;10.23;;;14.20;99.90;;;;;;4754435;30;20489;-66
2022/10/05 07:09:38;;;;;;;10.32;9.23;;;14.30;99.90;;;;;;4738121;30;20514;-66
2022/10/05 07:12:25;;;;;;;10.57;9.50;;;14.30;99.90;;;;;;4733947;30;20136;-66
2022/10/05 07:15:24;;;;;;;11.20;9.55;;;14.40;99.90;;;;;;4729887;30;20056;-66
2022/10/05 07:18:17;;;;;;;10.00;9.00;;;14.40;99.90;;;;;;4736922;30;20059;-65
2022/10/05 07:20:54;;;;;;;13.27;9.85;;;14.40;99.90;;;;;;4753852;30;20056;-66
2022/10/05 07:23:33;;;;;;;9.30;8.30;;;14.50;99.90;;;;;;4753169;30;20055;-66
2022/10/05 07:26:13;;;;;;;10.73;9.18;;;14.50;99.90;;;;;;4753322;30;20091;-66
2022/10/05 07:28:42;;;;;;;10.18;8.88;;;14.50;99.90;;;;;;4751958;30;20498;-66
2022/10/05 07:31:29;;;;;;;10.98;9.02;;;14.60;99.90;;;;;;4736768;30;20529;-67
2022/10/05 07:34:10;;;;;;;9.00;8.15;;;14.60;99.90;;;;;;4736921;30;20482;-67
2022/10/05 07:39:53;;;;;;;9.25;8.25;;;14.70;99.90;;;;;;4752721;30;20052;-66
2022/10/05 07:42:42;;;;;;;10.05;8.07;;;14.80;99.90;;;;;;4753225;30;20123;-66
2022/10/05 07:45:40;;;;;;;9.93;7.57;;;14.90;99.90;;;;;;4753077;30;20087;-67
2022/10/05 07:48:17;;;;;;;8.75;7.38;;;14.80;99.90;;;;;;4736617;30;20399;-67
2022/10/05 07:50:51;;;;;;;10.30;8.27;;;14.90;99.90;;;;;;4737294;30;20063;-67
2022/10/05 07:53:27;;;;;;;11.13;8.00;;;14.90;99.90;;;;;;4752890;30;20052;-67
2022/10/05 07:55:58;;;;;;;8.38;7.43;;;14.90;99.90;;;;;;4753273;30;20060;-67
2022/10/05 07:58:39;;;;;;;9.00;7.25;;;14.80;99.90;;;;;;4753155;30;20044;-67
2022/10/05 08:01:25;;;;;;;8.52;7.53;;;15.00;99.90;;;;;;4752855;30;20585;-67
2022/10/05 08:04:09;;;;;;;8.38;7.43;;;15.00;99.90;;;;;;4736986;30;20060;-66
2022/10/05 08:06:58;;;;;;;9.35;7.13;;;15.00;99.90;;;;;;4719929;30;20057;-67
2022/10/05 08:09:54;;;;;;;9.93;7.55;;;15.10;99.90;;;;;;4719334;30;20071;-67
2022/10/05 08:12:20;;;;;;;8.13;7.20;;;15.20;99.90;;;;;;4735397;30;20052;-67
2022/10/05 08:15:13;;;;;;;8.45;7.40;;;15.20;99.90;;;;;;4735487;30;20105;-67
2022/10/05 08:18:01;;;;;;;8.20;7.40;;;15.30;99.90;;;;;;4735306;30;20056;-67
2022/10/05 08:20:39;;;;;;;8.48;7.15;;;15.40;99.90;;;;;;4751212;30;20389;-67
2022/10/05 08:23:14;;;;;;;9.38;6.80;;;15.40;99.90;;;;;;4736475;30;20127;-67
2022/10/05 08:25:45;;;;;;;7.85;6.95;;;15.50;99.90;;;;;;4753261;30;20459;-67
2022/10/05 08:28:50;;;;;;;7.53;6.70;;;15.50;99.90;;;;;;4736452;30;20099;-67
2022/10/05 08:31:21;;;;;;;9.65;6.50;;;15.60;99.90;;;;;;4731549;30;20068;-67
2022/10/05 08:33:57;;;;;;;8.30;7.18;;;15.60;99.90;;;;;;4752642;30;20052;-67
2022/10/05 08:36:43;;;;;;;7.32;6.57;;;15.60;99.90;;;;;;4751627;30;20394;-67
2022/10/05 08:39:17;;;;;;;7.88;6.60;;;15.60;99.90;;;;;;4751824;30;20110;-67
2022/10/05 08:41:48;;;;;;;7.28;6.53;;;15.70;99.90;;;;;;4736378;30;20121;-67
2022/10/05 08:44:41;;;;;;;7.80;6.90;;;15.70;99.90;;;;;;4736353;30;20525;-67
2022/10/05 08:47:38;;;;;;;7.82;6.85;;;15.80;99.90;;;;;;4736879;30;20349;-66
2022/10/05 08:50:24;;;;;;;8.15;6.65;;;15.80;99.90;;;;;;4752346;30;20091;-67
2022/10/05 08:53:28;;;;;;;8.18;6.50;;;15.90;99.90;;;;;;4751017;30;20083;-67
2022/10/05 08:56:09;;;;;;;8.00;6.63;;;15.90;99.90;;;;;;4752202;30;20592;-67
2022/10/05 08:59:00;;;;;;;6.40;5.80;;;15.90;99.90;;;;;;4752261;30;20098;-66
2022/10/05 09:01:43;;;;;;;6.43;5.68;;;16.00;99.90;;;;;;4736835;30;20144;-67
2022/10/05 09:05:09;;;;;;;6.57;5.63;;;16.00;99.90;;;;;;4736079;30;20063;-67
2022/10/05 09:08:08;;;;;;;7.85;6.20;;;16.10;99.90;;;;;;4666034;30;20053;-66
2022/10/05 09:11:01;;;;;;;5.53;4.95;;;16.10;99.90;;;;;;4680440;30;20080;-67
2022/10/05 09:13:47;;;;;;;5.32;4.85;;;16.10;99.90;;;;;;4733379;30;20052;-67
2022/10/05 09:16:42;;;;;;;5.70;5.20;;;16.20;99.90;;;;;;4734834;30;20434;-67
2022/10/05 09:19:45;;;;;;;5.65;5.15;;;16.20;99.90;;;;;;4734794;30;20053;-67
2022/10/05 09:22:21;;;;;;;5.07;4.57;;;16.20;99.90;;;;;;4737983;30;20056;-66
2022/10/05 09:24:55;;;;;;;5.60;4.45;;;16.20;99.90;;;;;;4734492;30;20055;-67
2022/10/05 09:27:41;;;;;;;5.20;4.80;;;16.20;99.90;;;;;;4752441;30;20513;-67
2022/10/05 09:30:22;;;;;;;5.05;4.53;;;16.20;99.90;;;;;;4751666;30;20064;-67
2022/10/05 09:32:48;;;;;;;4.53;4.13;;;16.30;99.90;;;;;;4751723;30;20443;-67
2022/10/05 09:35:38;;;;;;;6.10;4.50;;;16.30;99.90;;;;;;4736023;30;20079;-67
2022/10/05 09:46:36;;;;;;;4.75;4.30;;;16.40;99.90;;;;;;4751955;30;20059;-66
2022/10/05 09:49:30;;;;;;;7.05;4.53;;;16.40;99.90;;;;;;4754093;30;20139;-66
2022/10/05 09:52:01;;;;;;;5.35;4.60;;;16.40;99.90;;;;;;4755143;30;20063;-67
2022/10/05 09:54:37;;;;;;;5.10;4.60;;;16.40;99.90;;;;;;4738258;30;20052;-67
2022/10/05 09:57:26;;;;;;;5.57;4.05;;;16.40;99.90;;;;;;4755052;30;20436;-67
2022/10/05 10:00:37;;;;;;;5.15;4.70;;;16.40;99.90;;;;;;4739079;30;20208;-67
2022/10/05 10:03:12;;;;;;;6.25;4.60;;;16.40;99.90;;;;;;4668613;30;20143;-66
2022/10/05 10:05:51;;;;;;;4.80;4.40;;;16.40;99.90;;;;;;4749379;30;20071;-66
2022/10/05 10:08:40;;;;;;;6.20;4.97;;;16.40;99.90;;;;;;4754017;30;20056;-67
2022/10/05 10:11:08;;;;;;;5.65;5.05;;;16.30;99.90;;;;;;4739138;30;20087;-67
2022/10/05 10:13:56;;;;;;;6.03;5.03;;;16.40;99.90;;;;;;4738822;30;20121;-67
2022/10/05 10:16:53;;;;;;;5.80;5.20;;;16.40;99.90;;;;;;4739554;30;20389;-66
2022/10/05 10:19:26;;;;;;;5.00;4.50;;;16.30;99.90;;;;;;4754863;30;20390;-67
2022/10/05 10:22:27;;;;;;;5.43;4.80;;;16.30;99.90;;;;;;4739166;30;20160;-66
2022/10/05 10:25:11;;;;;;;4.53;4.18;;;16.30;99.90;;;;;;4753186;30;20056;-66
2022/10/05 10:28:05;;;;;;;6.35;4.80;;;16.40;99.90;;;;;;4754841;30;20056;-67
2022/10/05 10:30:59;;;;;;;5.00;4.50;;;16.40;99.90;;;;;;4754485;30;20056;-67
2022/10/05 10:33:24;;;;;;;5.32;4.88;;;;;;;;;;4754549;30;20060;-67
2022/10/05 10:36:17;;;;;;;5.57;5.00;;;16.40;99.90;;;;;;4738633;30;20063;-67
2022/10/05 10:38:54;;;;;;;5.07;4.68;;;16.40;99.90;;;;;;4754217;30;20400;-67
2022/10/05 10:41:49;;;;;;;5.60;5.10;;;16.50;99.90;;;;;;4738725;30;20139;-67
2022/10/05 10:44:46;;;;;;;5.05;4.65;;;16.40;99.90;;;;;;4753956;30;20059;-67
2022/10/05 10:47:23;;;;;;;5.28;4.85;;;16.50;99.90;;;;;;4752466;30;20417;-67
2022/10/05 10:50:27;;;;;;;4.75;4.38;;;16.50;99.90;;;;;;4753516;30;20534;-67
2022/10/05 10:53:19;;;;;;;4.72;4.25;;;16.60;99.90;;;;;;4736791;30;20059;-67
2022/10/05 10:56:10;;;;;;;4.63;4.00;;;16.60;99.90;;;;;;4754085;30;20052;-67
2022/10/05 10:59:05;;;;;;;4.18;3.70;;;16.70;99.90;;;;;;4751916;30;20067;-67
2022/10/05 11:01:44;;;;;;;4.10;3.80;;;16.90;99.90;;;;;;4750288;30;20101;-67
2022/10/05 11:04:47;;;;;;;4.85;4.38;;;16.80;99.90;;;;;;4751678;30;20064;-67
2022/10/05 11:07:41;;;;;;;4.55;4.15;;;16.80;99.90;;;;;;4752856;30;20060;-67
2022/10/05 11:10:40;;;;;;;4.43;4.13;;;16.80;99.90;;;;;;4753533;30;20564;-67
2022/10/05 11:13:23;;;;;;;4.43;4.13;;;16.90;99.90;;;;;;4754003;30;20059;-66
2022/10/05 11:16:14;;;;;;;4.63;4.22;;;16.80;99.90;;;;;;4753259;30;20055;-67
2022/10/05 11:19:14;;;;;;;5.43;4.47;;;16.80;99.90;;;;;;4753643;30;20431;-66
2022/10/05 11:22:11;;;;;;;4.60;3.90;;;16.90;99.90;;;;;;4753733;30;20124;-67
2022/10/05 11:24:53;;;;;;;4.78;3.70;;;17.00;99.90;;;;;;4737507;30;20132;-67
2022/10/05 11:27:24;;;;;;;;;;;17.00;99.90;;;;;;4754248;30;20093;-67
2022/10/05 11:30:15;;;;;;;5.57;3.28;;;17.00;99.90;;;;;;4736334;30;19961;-68
2022/10/05 11:32:52;;;;;;;3.80;3.35;;;17.10;99.90;;;;;;4737013;30;20547;-67
2022/10/05 11:35:45;;;;;;;3.55;3.25;;;17.10;99.90;;;;;;4751539;30;20056;-67
2022/10/05 11:38:35;;;;;;;6.03;3.78;;;17.10;99.90;;;;;;4753200;30;20598;-67
2022/10/05 11:41:40;;;;;;;4.70;3.50;;;17.10;99.90;;;;;;4738139;30;20148;-67
2022/10/05 11:44:42;;;;;;;4.38;3.80;;;17.10;99.90;;;;;;4751846;30;20048;-67
2022/10/05 11:47:18;;;;;;;3.90;3.50;;;17.10;99.90;;;;;;4743757;30;20045;-67
2022/10/05 11:49:53;;;;;;;5.38;4.15;;;17.10;99.90;;;;;;4729734;30;20087;-68
2022/10/05 11:52:39;;;;;;;5.20;3.70;;;17.00;99.90;;;;;;4736988;30;20060;-68
2022/10/05 11:55:14;;;;;;;3.72;3.33;;;17.00;99.90;;;;;;4752671;30;20141;-67
2022/10/05 11:58:20;;;;;;;4.18;3.70;;;17.00;99.90;;;;;;4737546;30;20055;-67
2022/10/05 12:01:02;;;;;;;4.30;3.90;;;17.00;99.90;;;;;;4742963;30;20494;-67
2022/10/05 12:03:47;;;;;;;4.30;3.90;;;17.00;99.90;;;;;;4752004;30;20127;-67
2022/10/05 12:06:25;;;;;;;5.25;3.67;;;17.00;99.90;;;;;;4735549;30;20056;-67
2022/10/05 12:09:00;;;;;;;4.97;4.13;;;17.00;99.90;;;;;;4745565;30;20127;-67
2022/10/05 12:11:45;;;;;;;4.95;4.00;;;17.00;99.90;;;;;;4736490;30;20066;-67
2022/10/05 12:14:29;;;;;;;4.30;3.90;;;17.00;99.90;;;;;;4753017;30;20126;-67
2022/10/05 12:17:41;;;;;;;4.43;4.03;;;17.00;99.90;;;;;;4753024;30;20060;-67
2022/10/05 12:20:15;;;;;;;6.43;4.20;;;17.00;99.90;;;;;;4722476;30;20102;-68
2022/10/05 12:23:05;;;;;;;5.90;3.88;;;16.90;99.90;;;;;;4752141;30;20052;-68
2022/10/05 12:25:49;;;;;;;6.18;3.70;;;16.90;99.90;;;;;;4751941;30;20102;-67
2022/10/05 12:28:20;;;;;;;6.38;4.45;;;16.90;99.90;;;;;;4753040;30;20052;-67
2022/10/05 12:31:17;;;;;;;4.32;3.90;;;16.90;99.90;;;;;;4736709;30;20064;-68
2022/10/05 12:34:01;;;;;;;4.43;3.97;;;16.90;99.90;;;;;;4751251;30;20427;-67
2022/10/05 12:36:48;;;;;;;4.75;4.20;;;16.90;99.90;;;;;;4752192;30;20083;-67
2022/10/05 12:39:46;;;;;;;4.50;3.97;;;16.90;99.90;;;;;;4752056;30;20490;-67
2022/10/05 12:42:19;;;;;;;6.05;4.57;;;17.00;99.90;;;;;;4713391;30;20063;-67
2022/10/05 12:45:02;;;;;;;4.78;4.20;;;17.00;99.90;;;;;;4752318;30;20371;-68
2022/10/05 12:47:41;;;;;;;4.68;4.18;;;17.00;99.90;;;;;;4735122;30;20071;-67
2022/10/05 12:50:38;;;;;;;4.40;4.00;;;17.00;99.90;;;;;;4746815;30;20056;-68
2022/10/05 12:53:19;;;;;;;4.13;3.78;;;17.00;99.90;;;;;;4750587;30;20497;-68
2022/10/05 12:55:59;;;;;;;5.45;3.92;;;17.00;99.90;;;;;;4736543;30;20121;-67
2022/10/05 12:58:55;;;;;;;5.30;3.95;;;17.00;99.90;;;;;;4736143;30;20091;-67
2022/10/05 13:01:20;;;;;;;4.07;3.70;;;17.10;99.90;;;;;;4734561;30;20498;-67
2022/10/05 13:03:53;;;;;;;4.40;3.92;;;17.10;99.90;;;;;;4727208;30;20052;-67
2022/10/05 13:06:32;;;;;;;4.88;3.50;;;17.10;99.90;;;;;;4752374;30;20347;-67
2022/10/05 13:09:10;;;;;;;4.65;3.50;;;17.20;99.90;;;;;;4735870;30;20056;-67
2022/10/05 13:11:49;;;;;;;4.25;3.30;;;17.20;99.90;;;;;;4751023;30;20140;-67
2022/10/05 13:14:46;;;;;;;4.40;3.58;;;17.20;99.90;;;;;;4752260;30;20371;-67
2022/10/05 13:17:41;;;;;;;5.93;3.55;;;17.20;99.90;;;;;;4752639;30;20056;-67
2022/10/05 13:20:16;;;;;;;4.07;3.63;;;17.20;99.90;;;;;;4751585;30;20123;-67
2022/10/05 13:22:47;;;;;;;4.57;3.47;;;17.30;99.90;;;;;;4752905;30;20091;-67
2022/10/05 13:25:12;;;;;;;4.45;3.33;;;17.30;99.90;;;;;;4755149;30;20044;-67
2022/10/05 13:27:47;;;;;;;4.22;3.70;;;17.30;99.90;;;;;;4755993;30;20119;-67
2022/10/05 13:30:16;;;;;;;3.50;3.15;;;17.40;99.90;;;;;;4755230;30;20131;-67
2022/10/05 13:32:57;;;;;;;3.53;3.22;;;17.50;99.90;;;;;;4753400;30;20056;-67
2022/10/05 13:35:31;;;;;;;4.15;3.33;;;17.60;99.90;;;;;;4735416;30;20115;-67
2022/10/05 13:38:28;;;;;;;5.25;3.25;;;17.70;99.90;;;;;;4751024;30;20044;-67
2022/10/05 13:41:05;;;;;;;3.90;3.15;;;17.80;99.90;;;;;;4740115;30;20112;-67
2022/10/05 14:00:13;;;;;;;3.92;3.17;;;17.90;99.90;;;;;;4754314;30;20039;-67
2022/10/05 14:46:49;;;;;;;6.20;4.30;;;17.90;99.90;;;;;;4785960;30;20150;-67
2022/10/05 14:57:56;;;;;;;3.30;2.90;;;17.90;99.90;;;;;;4778094;30;20046;-67
2022/10/05 15:00:23;;;;;;;3.75;3.25;;;17.90;99.90;;;;;;4763913;29;20096;-66
2022/10/05 15:07:26;;;;;;;4.22;2.70;;;17.90;99.90;;;;;;4789667;30;20050;-67
2022/10/05 15:09:51;;;;;;;4.82;3.35;;;17.90;99.90;;;;;;4789140;30;20050;-68
2022/10/05 15:16:32;;;;;;;4.40;3.05;;;17.80;99.90;;;;;;4787971;30;20123;-67
2022/10/05 15:19:01;;;;;;;4.45;3.15;;;17.80;99.90;;;;;;4793098;29;20059;-67
2022/10/05 15:21:54;;;;;;;4.65;2.85;;;17.80;99.90;;;;;;4788032;30;20070;-67
2022/10/05 15:24:51;;;;;;;4.70;3.30;;;17.80;99.90;;;;;;4773210;30;20055;-67
2022/10/05 15:27:26;;;;;;;5.57;3.33;;;17.70;99.90;;;;;;4764526;30;20059;-67
2022/10/05 15:30:03;;;;;;;4.57;3.70;;;17.70;99.90;;;;;;4787474;29;20097;-67
2022/10/05 15:33:08;;;;;;;5.05;3.47;;;17.70;99.90;;;;;;4765704;30;20465;-67
2022/10/05 15:35:39;;;;;;;6.30;4.80;;;17.60;99.90;;;;;;4771837;30;20055;-67
2022/10/05 15:38:23;;;;;;;5.22;3.80;;;17.60;99.90;;;;;;4769386;30;20055;-67
2022/10/05 15:40:57;;;;;;;4.75;4.35;;;17.60;99.90;;;;;;4768825;30;20134;-67
2022/10/05 15:43:25;;;;;;;5.18;4.07;;;17.60;99.90;;;;;;4769654;30;20052;-67
2022/10/05 15:46:15;;;;;;;6.88;4.30;;;17.50;99.90;;;;;;4771119;30;20422;-67
2022/10/05 15:48:51;;;;;;;6.47;4.80;;;;;;;;;;4771301;30;20357;-68
2022/10/05 15:51:49;;;;;;;8.35;4.65;;;17.40;99.90;;;;;;4771090;30;20054;-68
2022/10/05 15:54:40;;;;;;;5.38;4.10;;;17.40;99.90;;;;;;4788387;30;20047;-67
2022/10/05 15:57:24;;;;;;;6.60;4.43;;;17.40;99.90;;;;;;4787994;30;20119;-67
2022/10/05 16:00:15;;;;;;;4.47;3.70;;;17.20;99.90;;;;;;4772665;30;20051;-67
2022/10/05 16:29:47;;;;;;;6.15;3.58;;;17.10;99.90;;;;;;4782468;30;20034;-67